Time;durP1;ratioP1;P1;durP2;ratioP2;P2;SDS_P1;SDS_P2;PMS_P1;PMS_P2;Temp;Humidity;BMP_temperature;BMP_pressure;BME280_temperature;BME280_humidity;BME280_pressure;Samples;Min_cycle;Max_cycle;Signal;HPM_P1;HPM_P2
2022/07/19 10:17:19;;;;;;;21.60;2.60;;;;;;;;;;5082076;27;1982999;-69
2022/07/19 10:19:47;;;;;;;20.67;2.80;;;;;;;;;;5130039;28;20218;-70
2022/07/19 10:22:16;;;;;;;20.80;2.50;;;;;;;;;;5129976;28;20536;-69
2022/07/19 10:24:45;;;;;;;21.13;2.40;;;;;;;;;;5129879;28;20536;-69
2022/07/19 10:27:13;;;;;;;21.90;3.57;;;;;;;;;;5130030;28;20467;-68
2022/07/19 10:29:40;;;;;;;20.30;2.63;;;;;;;;;;5130075;28;20460;-69
2022/07/19 10:32:08;;;;;;;18.37;2.00;;;;;;;;;;5129892;28;20468;-69
2022/07/19 10:34:38;;;;;;;21.20;3.00;;;;;;;;;;5129599;28;20464;-69
2022/07/19 10:37:06;;;;;;;21.40;2.40;;;;;;;;;;5129613;28;20490;-71
2022/07/19 10:39:34;;;;;;;20.63;2.90;;;;;;;;;;5129613;28;20460;-69
2022/07/19 10:42:05;;;;;;;27.50;2.50;;;;;;;;;;5129646;28;21008;-70
2022/07/19 10:44:33;;;;;;;20.20;2.60;;;;;;;;;;5129511;28;20844;-70
2022/07/19 10:47:00;;;;;;;19.70;2.50;;;;;;;;;;5129514;28;20468;-69
2022/07/19 10:49:45;;;;;;;20.20;2.00;;;;;;;;;;5129466;28;20467;-72
2022/07/19 10:52:33;;;;;;;21.67;2.50;;;;;;;;;;5125282;28;20500;-74
2022/07/19 10:55:15;;;;;;;21.60;2.20;;;;;;;;;;5108830;28;20515;-71
2022/07/19 10:57:42;;;;;;;19.03;2.00;;;;;;;;;;5095955;28;20480;-77
2022/07/19 11:00:17;;;;;;;18.27;2.20;;;;;;;;;;5108800;28;20461;-71
2022/07/19 11:02:44;;;;;;;20.50;2.50;;;;;;;;;;5108760;28;20468;-75
2022/07/19 11:05:23;;;;;;;19.37;2.00;;;;;;;;;;5108570;28;20472;-71
2022/07/19 11:07:52;;;;;;;19.93;2.40;;;;;;;;;;5108633;28;20471;-71
2022/07/19 11:10:23;;;;;;;20.40;2.27;;;;;;;;;;5108663;28;20469;-70
2022/07/19 11:12:53;;;;;;;23.67;2.10;;;;;;;;;;5107806;28;20468;-71
2022/07/19 11:15:20;;;;;;;23.20;2.77;;;;;;;;;;5107052;28;20849;-71
2022/07/19 11:17:58;;;;;;;21.50;2.67;;;;;;;;;;5107049;28;20868;-71
2022/07/19 11:20:28;;;;;;;19.10;2.10;;;;;;;;;;5107045;28;20471;-70
2022/07/19 11:22:56;;;;;;;23.03;2.60;;;;;;;;;;5107767;28;20472;-69
2022/07/19 11:25:28;;;;;;;20.50;2.80;;;;;;;;;;5107532;28;20468;-73
2022/07/19 11:27:55;;;;;;;21.03;2.60;;;;;;;;;;5097816;28;20457;-74
2022/07/19 11:30:23;;;;;;;24.93;2.20;;;;;;;;;;5094597;28;20457;-71
2022/07/19 11:32:53;;;;;;;18.73;2.20;;;;;;;;;;5093986;28;21020;-69
2022/07/19 11:35:21;;;;;;;18.50;1.90;;;;;;;;;;5094348;28;20450;-69
2022/07/19 11:37:50;;;;;;;20.10;2.60;;;;;;;;;;5093834;28;20458;-70
2022/07/19 11:40:18;;;;;;;24.03;2.20;;;;;;;;;;5094043;28;20466;-69
2022/07/19 11:42:47;;;;;;;21.03;2.77;;;;;;;;;;5091463;28;20561;-71
2022/07/19 11:45:15;;;;;;;18.47;2.03;;;;;;;;;;5094121;28;20466;-69
2022/07/19 11:47:44;;;;;;;19.60;2.30;;;;;;;;;;5093630;28;20458;-71
2022/07/19 11:50:12;;;;;;;18.47;1.80;;;;;;;;;;5093916;28;20450;-75
2022/07/19 11:52:43;;;;;;;19.70;2.00;;;;;;;;;;5093504;28;20470;-75
2022/07/19 11:55:13;;;;;;;25.40;2.30;;;;;;;;;;5094489;28;20867;-77
2022/07/19 11:57:41;;;;;;;17.83;1.87;;;;;;;;;;5094027;28;20493;-74
2022/07/19 12:00:09;;;;;;;18.90;2.00;;;;;;;;;;5094258;28;20982;-77
2022/07/19 12:02:53;;;;;;;19.93;2.10;;;;;;;;;;5094134;28;20572;-75
2022/07/19 12:05:21;;;;;;;18.47;2.03;;;;;;;;;;5094017;28;20480;-73
2022/07/19 12:07:48;;;;;;;19.80;2.23;;;;;;;;;;5094021;28;20534;-77
2022/07/19 12:10:37;;;;;;;19.13;1.83;;;;;;;;;;5094282;28;20458;-74
2022/07/19 12:13:06;;;;;;;18.93;1.90;;;;;;;;;;5093928;28;20466;-73
2022/07/19 12:15:47;;;;;;;23.60;2.93;;;;;;;;;;5093356;28;20517;-74
2022/07/19 12:18:16;;;;;;;18.63;2.03;;;;;;;;;;5093501;28;20466;-73
2022/07/19 12:20:44;;;;;;;20.80;2.50;;;;;;;;;;5092122;28;20450;-74
2022/07/19 12:23:15;;;;;;;23.63;2.43;;;;;;;;;;5092267;28;20515;-73
2022/07/19 12:25:44;;;;;;;20.33;2.30;;;;;;;;;;5073212;28;20470;-73
2022/07/19 12:28:12;;;;;;;18.83;1.97;;;;;;;;;;5073510;28;20470;-74
2022/07/19 12:30:40;;;;;;;19.73;2.30;;;;;;;;;;5073163;28;20462;-74
2022/07/19 12:33:08;;;;;;;21.10;2.97;;;;;;;;;;5073310;28;20510;-74
2022/07/19 12:35:45;;;;;;;19.60;2.60;;;;;;;;;;5090715;28;20462;-72
2022/07/19 12:38:13;;;;;;;21.80;2.70;;;;;;;;;;5092895;28;20485;-73
2022/07/19 12:40:41;;;;;;;20.70;2.63;;;;;;;;;;5092206;28;20913;-73
2022/07/19 12:43:12;;;;;;;17.90;1.83;;;;;;;;;;5092926;28;20476;-74
2022/07/19 12:45:42;;;;;;;23.57;2.53;;;;;;;;;;5092772;28;20569;-73
2022/07/19 12:48:10;;;;;;;19.60;2.30;;;;;;;;;;5092806;28;20470;-74
2022/07/19 12:50:39;;;;;;;25.50;2.30;;;;;;;;;;5092813;28;20511;-74
2022/07/19 12:53:07;;;;;;;20.27;2.57;;;;;;;;;;5092304;28;20470;-73
2022/07/19 12:55:35;;;;;;;18.97;2.27;;;;;;;;;;5092882;28;20466;-72
2022/07/19 12:58:04;;;;;;;23.80;2.97;;;;;;;;;;5091187;28;20478;-73
2022/07/19 13:00:33;;;;;;;22.60;2.67;;;;;;;;;;5090544;28;20480;-80
2022/07/19 13:03:03;;;;;;;19.30;2.30;;;;;;;;;;5092178;28;20477;-73
2022/07/19 13:05:32;;;;;;;23.27;4.10;;;;;;;;;;5091421;28;21033;-73
2022/07/19 13:08:00;;;;;;;26.40;2.60;;;;;;;;;;5092213;28;20473;-71
2022/07/19 13:10:28;;;;;;;20.87;2.20;;;;;;;;;;5092254;28;20470;-72
2022/07/19 13:12:56;;;;;;;20.17;2.20;;;;;;;;;;5092027;28;20470;-74
2022/07/19 13:15:23;;;;;;;26.83;3.20;;;;;;;;;;5090941;28;21068;-73
2022/07/19 13:17:53;;;;;;;30.13;2.80;;;;;;;;;;5090417;28;20994;-75
2022/07/19 13:20:21;;;;;;;24.97;2.33;;;;;;;;;;5090304;28;20473;-75
2022/07/19 13:22:48;;;;;;;22.30;2.90;;;;;;;;;;5090564;28;20469;-75
2022/07/19 13:25:15;;;;;;;22.33;3.00;;;;;;;;;;5090567;28;20458;-73
2022/07/19 13:27:44;;;;;;;20.80;2.60;;;;;;;;;;5090068;28;20469;-74
2022/07/19 13:30:12;;;;;;;22.23;2.37;;;;;;;;;;5090958;28;20548;-73
2022/07/19 13:32:41;;;;;;;22.03;2.17;;;;;;;;;;5092098;28;20484;-74
2022/07/19 13:35:10;;;;;;;19.37;2.60;;;;;;;;;;5092611;28;20840;-74
2022/07/19 13:37:38;;;;;;;22.00;2.50;;;;;;;;;;5091852;28;20490;-73
2022/07/19 13:40:06;;;;;;;21.43;2.20;;;;;;;;;;5092404;28;20854;-73
2022/07/19 13:42:34;;;;;;;23.27;2.30;;;;;;;;;;5092203;28;20868;-73
2022/07/19 13:45:01;;;;;;;21.33;2.10;;;;;;;;;;5092118;28;20461;-74
2022/07/19 13:47:28;;;;;;;27.47;3.33;;;;;;;;;;5091883;28;20470;-73
2022/07/19 13:49:58;;;;;;;19.93;2.37;;;;;;;;;;5091946;28;20465;-74
2022/07/19 13:52:27;;;;;;;20.47;2.20;;;;;;;;;;5091861;28;20500;-74
2022/07/19 13:54:55;;;;;;;20.10;2.50;;;;;;;;;;5092250;28;20457;-74
2022/07/19 13:57:23;;;;;;;28.30;2.73;;;;;;;;;;5091858;28;20504;-74
2022/07/19 13:59:50;;;;;;;23.70;3.27;;;;;;;;;;5092223;28;20449;-73
2022/07/19 14:02:17;;;;;;;20.00;2.30;;;;;;;;;;5091637;28;20466;-73
2022/07/19 14:04:45;;;;;;;21.83;2.27;;;;;;;;;;5092163;28;20458;-74
2022/07/19 14:07:12;;;;;;;18.90;1.80;;;;;;;;;;5092175;28;20832;-73
2022/07/19 14:09:41;;;;;;;24.40;2.73;;;;;;;;;;5091782;28;20476;-73
2022/07/19 14:12:09;;;;;;;25.50;2.70;;;;;;;;;;5091762;28;20477;-73
2022/07/19 14:14:37;;;;;;;19.40;2.07;;;;;;;;;;5091960;28;20845;-73
2022/07/19 14:17:04;;;;;;;23.43;2.20;;;;;;;;;;5091273;28;20493;-72
2022/07/19 14:19:35;;;;;;;20.97;2.50;;;;;;;;;;5091815;28;20465;-73
2022/07/19 14:22:02;;;;;;;21.47;2.93;;;;;;;;;;5091505;28;20470;-73
2022/07/19 14:24:30;;;;;;;20.00;2.40;;;;;;;;;;5091741;28;20807;-73
2022/07/19 14:26:59;;;;;;;22.40;2.20;;;;;;;;;;5091377;28;20476;-72
2022/07/19 14:29:26;;;;;;;22.57;2.40;;;;;;;;;;5091793;28;20466;-73
2022/07/19 14:31:54;;;;;;;21.83;2.73;;;;;;;;;;5091128;28;20457;-74
2022/07/19 14:34:21;;;;;;;18.60;1.83;;;;;;;;;;5090743;28;20826;-73
2022/07/19 14:36:49;;;;;;;22.83;2.30;;;;;;;;;;5091545;28;20529;-74
2022/07/19 14:39:16;;;;;;;21.33;2.10;;;;;;;;;;5091522;28;20461;-72
2022/07/19 14:41:44;;;;;;;20.40;1.80;;;;;;;;;;5091920;28;20469;-73
2022/07/19 14:44:13;;;;;;;19.97;2.20;;;;;;;;;;5091557;28;20469;-74
2022/07/19 14:46:40;;;;;;;18.87;1.90;;;;;;;;;;5091315;28;20465;-74
2022/07/19 14:49:08;;;;;;;21.13;2.10;;;;;;;;;;5091471;28;20470;-74
2022/07/19 14:51:36;;;;;;;21.80;2.23;;;;;;;;;;5091283;28;20453;-74
2022/07/19 14:54:04;;;;;;;18.37;2.20;;;;;;;;;;5091127;28;20469;-74
2022/07/19 14:56:32;;;;;;;19.23;2.87;;;;;;;;;;5091120;28;20485;-73
2022/07/19 14:58:59;;;;;;;18.13;1.90;;;;;;;;;;5091552;28;20462;-75
2022/07/19 15:01:28;;;;;;;20.33;2.20;;;;;;;;;;5091259;28;20465;-76
2022/07/19 15:03:56;;;;;;;21.00;2.10;;;;;;;;;;5095066;28;20542;-73
2022/07/19 15:06:23;;;;;;;22.40;2.80;;;;;;;;;;5094996;28;20462;-75
2022/07/19 15:08:51;;;;;;;20.00;2.60;;;;;;;;;;5094880;28;20470;-75
2022/07/19 15:11:18;;;;;;;23.10;2.63;;;;;;;;;;5093521;28;20476;-75
2022/07/19 15:13:46;;;;;;;21.30;2.40;;;;;;;;;;5094495;28;21013;-75
2022/07/19 15:16:13;;;;;;;33.23;4.07;;;;;;;;;;5094332;28;20469;-75
2022/07/19 15:18:42;;;;;;;19.97;2.13;;;;;;;;;;5093554;28;20493;-75
2022/07/19 15:21:10;;;;;;;20.13;2.30;;;;;;;;;;5094317;28;20477;-74
2022/07/19 15:23:40;;;;;;;22.40;2.47;;;;;;;;;;5093984;28;20469;-75
2022/07/19 15:26:11;;;;;;;19.20;2.10;;;;;;;;;;5095161;28;20516;-76
2022/07/19 15:28:38;;;;;;;22.40;2.10;;;;;;;;;;5094691;28;20485;-77
2022/07/19 15:31:06;;;;;;;19.67;1.90;;;;;;;;;;5094669;28;20465;-69
2022/07/19 15:33:33;;;;;;;19.40;2.23;;;;;;;;;;5094474;28;20473;-69
2022/07/19 15:36:02;;;;;;;24.30;3.33;;;;;;;;;;5094203;28;20466;-69
2022/07/19 15:38:30;;;;;;;20.80;2.00;;;;;;;;;;5094188;28;20497;-71
2022/07/19 15:40:58;;;;;;;26.07;3.03;;;;;;;;;;5094501;28;20466;-71
2022/07/19 15:43:25;;;;;;;25.60;2.73;;;;;;;;;;5094268;28;20843;-71
2022/07/19 15:45:53;;;;;;;19.83;2.37;;;;;;;;;;5094301;28;20514;-68
2022/07/19 15:48:20;;;;;;;19.27;2.13;;;;;;;;;;5094321;28;20465;-68
2022/07/19 15:50:48;;;;;;;44.40;5.53;;;;;;;;;;5094709;28;20823;-67
2022/07/19 15:53:17;;;;;;;55.43;8.83;;;;;;;;;;5094376;28;20469;-66
2022/07/19 15:55:45;;;;;;;21.73;2.40;;;;;;;;;;5094509;28;20457;-67
2022/07/19 15:58:12;;;;;;;20.87;2.80;;;;;;;;;;5094106;28;20869;-67
2022/07/19 16:00:40;;;;;;;18.73;2.03;;;;;;;;;;5094234;28;20859;-67
2022/07/19 16:03:08;;;;;;;19.93;2.27;;;;;;;;;;5094215;28;20461;-65
2022/07/19 16:05:35;;;;;;;22.80;2.63;;;;;;;;;;5094159;28;20472;-67
2022/07/19 16:08:02;;;;;;;23.70;2.17;;;;;;;;;;5094128;28;20470;-67
2022/07/19 16:10:31;;;;;;;25.57;3.17;;;;;;;;;;5093938;28;20471;-67
2022/07/19 16:12:59;;;;;;;21.17;2.40;;;;;;;;;;5093742;28;20488;-66
2022/07/19 16:15:27;;;;;;;18.80;2.47;;;;;;;;;;5093420;28;20484;-66
2022/07/19 16:17:54;;;;;;;23.67;2.90;;;;;;;;;;5093892;28;20857;-71
2022/07/19 16:20:21;;;;;;;22.07;3.03;;;;;;;;;;5093349;28;20460;-67
2022/07/19 16:22:49;;;;;;;21.13;2.47;;;;;;;;;;5092103;28;20458;-67
2022/07/19 16:25:16;;;;;;;22.57;2.17;;;;;;;;;;5092951;28;20465;-67
2022/07/19 16:27:46;;;;;;;22.17;2.40;;;;;;;;;;5093036;28;20478;-67
2022/07/19 16:30:14;;;;;;;21.37;2.10;;;;;;;;;;5093383;28;20989;-67
2022/07/19 16:32:41;;;;;;;20.93;2.60;;;;;;;;;;5092941;28;20482;-68
2022/07/19 16:35:09;;;;;;;22.83;2.80;;;;;;;;;;5093462;28;20473;-67
2022/07/19 16:37:39;;;;;;;21.40;2.67;;;;;;;;;;5093172;28;20852;-66
2022/07/19 16:40:08;;;;;;;25.60;6.77;;;;;;;;;;5093313;28;20464;-66
2022/07/19 16:42:36;;;;;;;19.13;2.60;;;;;;;;;;5093784;28;20811;-67
2022/07/19 16:45:05;;;;;;;19.97;2.37;;;;;;;;;;5093425;28;20480;-67
2022/07/19 16:47:33;;;;;;;18.50;2.10;;;;;;;;;;5093037;28;20466;-66
2022/07/19 16:50:00;;;;;;;22.90;2.57;;;;;;;;;;5093100;28;21000;-67
2022/07/19 16:52:28;;;;;;;20.03;2.20;;;;;;;;;;5092617;28;20462;-67
2022/07/19 16:54:55;;;;;;;22.30;2.27;;;;;;;;;;5092859;28;20476;-68
2022/07/19 16:57:23;;;;;;;29.40;3.57;;;;;;;;;;5090548;28;20983;-66
2022/07/19 16:59:50;;;;;;;25.80;4.13;;;;;;;;;;5090610;28;20478;-67
2022/07/19 17:02:19;;;;;;;23.33;3.80;;;;;;;;;;5090865;28;20458;-67
2022/07/19 17:04:47;;;;;;;24.40;4.57;;;;;;;;;;5091610;28;20477;-67
2022/07/19 17:07:14;;;;;;;28.10;5.30;;;;;;;;;;5090254;28;20836;-66
2022/07/19 17:09:41;;;;;;;24.97;3.73;;;;;;;;;;5090345;28;20472;-70
2022/07/19 17:12:09;;;;;;;36.40;5.90;;;;;;;;;;5090475;28;20468;-67
2022/07/19 17:14:36;;;;;;;25.03;4.30;;;;;;;;;;5090208;28;20468;-66
2022/07/19 17:17:03;;;;;;;26.70;4.60;;;;;;;;;;5089716;28;21013;-68
2022/07/19 17:19:32;;;;;;;23.87;3.43;;;;;;;;;;5090614;28;20485;-66
2022/07/19 17:22:00;;;;;;;21.27;2.77;;;;;;;;;;5090682;28;20462;-70
2022/07/19 17:24:27;;;;;;;21.47;2.40;;;;;;;;;;5091402;28;20464;-67
2022/07/19 17:26:57;;;;;;;18.43;2.10;;;;;;;;;;5091847;28;20464;-65
2022/07/19 17:29:25;;;;;;;23.80;3.43;;;;;;;;;;5091718;28;20468;-68
2022/07/19 17:31:52;;;;;;;22.10;3.10;;;;;;;;;;5092199;28;20461;-67
2022/07/19 17:34:20;;;;;;;22.13;2.60;;;;;;;;;;5091951;28;20475;-66
2022/07/19 17:36:49;;;;;;;24.73;2.47;;;;;;;;;;5091667;28;20456;-67
2022/07/19 17:39:17;;;;;;;21.87;2.73;;;;;;;;;;5090524;28;21081;-66
2022/07/19 17:41:44;;;;;;;18.90;2.40;;;;;;;;;;5092013;28;20457;-66
2022/07/19 17:44:11;;;;;;;31.23;4.37;;;;;;;;;;5090932;28;20477;-68
2022/07/19 17:46:39;;;;;;;18.77;1.80;;;;;;;;;;5091316;28;20468;-68
2022/07/19 17:49:06;;;;;;;34.30;2.80;;;;;;;;;;5091193;28;20485;-70
2022/07/19 17:51:33;;;;;;;26.50;4.10;;;;;;;;;;5089853;28;20464;-71
2022/07/19 17:54:03;;;;;;;22.70;2.73;;;;;;;;;;5089319;28;20493;-69
2022/07/19 17:56:31;;;;;;;23.43;2.73;;;;;;;;;;5090522;28;20452;-68
2022/07/19 17:58:58;;;;;;;25.33;2.60;;;;;;;;;;5091152;28;20586;-69
2022/07/19 18:01:25;;;;;;;24.03;2.50;;;;;;;;;;5091047;28;20474;-68
2022/07/19 18:03:53;;;;;;;21.70;2.60;;;;;;;;;;5091090;28;20467;-69
2022/07/19 18:06:20;;;;;;;19.97;2.00;;;;;;;;;;5091345;28;20446;-68
2022/07/19 18:08:48;;;;;;;20.30;1.63;;;;;;;;;;5090842;28;20471;-69
2022/07/19 18:11:17;;;;;;;19.57;1.97;;;;;;;;;;5091665;28;20462;-68
2022/07/19 18:13:45;;;;;;;19.47;1.90;;;;;;;;;;5090989;28;20467;-70
2022/07/19 18:16:12;;;;;;;28.43;2.60;;;;;;;;;;5091209;28;20511;-69
2022/07/19 18:18:39;;;;;;;20.90;2.10;;;;;;;;;;5090760;28;20512;-69
2022/07/19 18:21:07;;;;;;;20.53;1.60;;;;;;;;;;5091097;28;20541;-71
2022/07/19 18:23:34;;;;;;;20.00;2.10;;;;;;;;;;5090991;28;20469;-74
2022/07/19 18:26:05;;;;;;;19.07;1.87;;;;;;;;;;5090725;28;20468;-70
2022/07/19 18:28:34;;;;;;;19.23;1.90;;;;;;;;;;5090093;28;20511;-70
2022/07/19 18:31:02;;;;;;;22.40;2.00;;;;;;;;;;5090757;28;20465;-70
2022/07/19 18:33:29;;;;;;;28.20;2.27;;;;;;;;;;5090383;28;20481;-70
2022/07/19 18:35:56;;;;;;;18.80;1.67;;;;;;;;;;5088815;28;20454;-68
2022/07/19 18:38:24;;;;;;;19.30;1.90;;;;;;;;;;5091924;28;20485;-69
2022/07/19 18:40:51;;;;;;;23.70;2.60;;;;;;;;;;5094097;28;20816;-69
2022/07/19 18:43:19;;;;;;;18.27;1.90;;;;;;;;;;5095059;28;20462;-69
2022/07/19 18:45:49;;;;;;;22.40;2.40;;;;;;;;;;5094142;28;20465;-69
2022/07/19 18:48:28;;;;;;;20.00;2.00;;;;;;;;;;5092724;28;20923;-69
2022/07/19 18:50:56;;;;;;;22.23;2.30;;;;;;;;;;5092014;28;21002;-70
2022/07/19 18:53:23;;;;;;;22.20;2.20;;;;;;;;;;5093949;28;20978;-70
2022/07/19 18:55:50;;;;;;;18.87;1.87;;;;;;;;;;5094602;28;20466;-71
2022/07/19 18:58:18;;;;;;;24.17;2.30;;;;;;;;;;5094555;28;20489;-71
2022/07/19 19:00:45;;;;;;;19.77;1.70;;;;;;;;;;5095327;28;20465;-68
2022/07/19 19:03:14;;;;;;;20.23;2.07;;;;;;;;;;5095414;28;20454;-69
2022/07/19 19:05:42;;;;;;;19.87;2.00;;;;;;;;;;5095105;28;20485;-67
2022/07/19 19:08:10;;;;;;;21.67;2.87;;;;;;;;;;5095239;28;20489;-67
2022/07/19 19:10:38;;;;;;;19.83;1.63;;;;;;;;;;5095227;28;20466;-68
2022/07/19 19:13:05;;;;;;;22.67;2.23;;;;;;;;;;5095035;28;20465;-69
2022/07/19 19:15:34;;;;;;;21.70;2.03;;;;;;;;;;5094687;28;20486;-68
2022/07/19 19:18:01;;;;;;;20.20;1.90;;;;;;;;;;5094989;28;20505;-66
2022/07/19 19:20:30;;;;;;;22.20;2.00;;;;;;;;;;5094936;28;20476;-68
2022/07/19 19:22:58;;;;;;;28.00;2.40;;;;;;;;;;5094749;28;20476;-68
2022/07/19 19:25:26;;;;;;;19.87;2.20;;;;;;;;;;5094838;28;20993;-67
2022/07/19 19:27:53;;;;;;;21.77;2.27;;;;;;;;;;5094562;28;20824;-68
2022/07/19 19:30:21;;;;;;;22.33;2.17;;;;;;;;;;5094925;28;21011;-69
2022/07/19 19:32:49;;;;;;;20.67;1.80;;;;;;;;;;5094696;28;20982;-66
2022/07/19 19:35:16;;;;;;;19.43;1.90;;;;;;;;;;5094952;28;20473;-68
2022/07/19 19:37:46;;;;;;;22.80;2.27;;;;;;;;;;5094818;28;20454;-69
2022/07/19 19:40:14;;;;;;;18.87;1.93;;;;;;;;;;5094428;28;20469;-68
2022/07/19 19:42:42;;;;;;;20.20;1.67;;;;;;;;;;5094571;28;20548;-69
2022/07/19 19:45:10;;;;;;;22.90;2.10;;;;;;;;;;5094547;28;20835;-68
2022/07/19 19:47:37;;;;;;;18.93;2.13;;;;;;;;;;5094031;28;20467;-67
2022/07/19 19:50:05;;;;;;;20.47;2.43;;;;;;;;;;5094254;28;20471;-68
2022/07/19 19:52:32;;;;;;;20.00;1.87;;;;;;;;;;5093513;28;20472;-69
2022/07/19 19:55:01;;;;;;;20.77;2.20;;;;;;;;;;5093890;28;20822;-70
2022/07/19 19:57:29;;;;;;;18.73;1.70;;;;;;;;;;5094364;28;20468;-69
2022/07/19 19:59:57;;;;;;;20.80;2.53;;;;;;;;;;5094029;28;21025;-68
2022/07/19 20:02:24;;;;;;;21.70;2.20;;;;;;;;;;5093970;28;20968;-69
2022/07/19 20:04:51;;;;;;;22.27;1.90;;;;;;;;;;5093800;28;21030;-70
2022/07/19 20:07:19;;;;;;;19.40;1.70;;;;;;;;;;5094256;28;20467;-69
2022/07/19 20:09:46;;;;;;;19.13;2.00;;;;;;;;;;5094094;28;20475;-68
2022/07/19 20:12:15;;;;;;;23.70;2.80;;;;;;;;;;5093144;28;20460;-69
2022/07/19 20:14:43;;;;;;;21.73;2.20;;;;;;;;;;5089542;28;20470;-69
2022/07/19 20:17:11;;;;;;;23.40;2.90;;;;;;;;;;5092888;28;20480;-71
2022/07/19 20:19:38;;;;;;;23.70;2.77;;;;;;;;;;5093633;28;20475;-68
2022/07/19 20:22:06;;;;;;;19.23;1.97;;;;;;;;;;5094311;28;20444;-68
2022/07/19 20:24:33;;;;;;;20.30;2.40;;;;;;;;;;5093986;28;20505;-66
2022/07/19 20:27:00;;;;;;;19.73;2.13;;;;;;;;;;5093346;28;20452;-67
2022/07/19 20:29:29;;;;;;;27.10;4.03;;;;;;;;;;5092444;28;20969;-68
2022/07/19 20:31:57;;;;;;;19.80;2.30;;;;;;;;;;5093361;28;20437;-68
2022/07/19 20:34:25;;;;;;;24.40;3.20;;;;;;;;;;5092831;28;20449;-68
2022/07/19 20:36:52;;;;;;;21.77;2.27;;;;;;;;;;5093270;28;20440;-68
2022/07/19 20:39:20;;;;;;;20.10;2.17;;;;;;;;;;5092490;28;20483;-68
2022/07/19 20:41:47;;;;;;;22.80;2.40;;;;;;;;;;5092549;28;20456;-68
2022/07/19 20:44:15;;;;;;;22.23;2.40;;;;;;;;;;5093567;28;20478;-68
2022/07/19 20:46:44;;;;;;;20.70;2.07;;;;;;;;;;5093362;28;20448;-68
2022/07/19 20:49:12;;;;;;;20.30;2.00;;;;;;;;;;5093503;28;20466;-69
2022/07/19 20:51:39;;;;;;;19.17;2.37;;;;;;;;;;5093684;28;20439;-68
2022/07/19 20:54:07;;;;;;;19.57;2.10;;;;;;;;;;5093442;28;20467;-68
2022/07/19 20:56:35;;;;;;;18.10;1.80;;;;;;;;;;5093519;28;20487;-68
2022/07/19 20:59:02;;;;;;;19.40;2.13;;;;;;;;;;5093381;28;20483;-68
2022/07/19 21:01:29;;;;;;;31.00;2.10;;;;;;;;;;5092654;28;20443;-67
2022/07/19 21:03:58;;;;;;;20.50;2.27;;;;;;;;;;5093428;28;20459;-68
2022/07/19 21:06:26;;;;;;;18.50;1.90;;;;;;;;;;5093271;28;20448;-68
2022/07/19 21:08:54;;;;;;;19.20;2.10;;;;;;;;;;5093058;28;20940;-67
2022/07/19 21:11:21;;;;;;;19.87;1.67;;;;;;;;;;5093446;28;20443;-68
2022/07/19 21:13:49;;;;;;;19.00;2.40;;;;;;;;;;5093375;28;20432;-67
2022/07/19 21:16:16;;;;;;;20.13;2.27;;;;;;;;;;5092500;28;20476;-68
2022/07/19 21:18:43;;;;;;;18.57;1.90;;;;;;;;;;5092379;28;21031;-68
2022/07/19 21:21:12;;;;;;;18.23;1.70;;;;;;;;;;5093046;28;20436;-67
2022/07/19 21:23:40;;;;;;;19.87;2.07;;;;;;;;;;5093325;28;20790;-67
2022/07/19 21:26:08;;;;;;;23.03;2.13;;;;;;;;;;5093340;28;20796;-67
2022/07/19 21:28:35;;;;;;;19.93;2.00;;;;;;;;;;5092986;28;20446;-67
2022/07/19 21:31:03;;;;;;;19.20;2.10;;;;;;;;;;5092834;28;20452;-68
2022/07/19 21:33:30;;;;;;;19.00;2.00;;;;;;;;;;5092845;28;20435;-67
2022/07/19 21:35:58;;;;;;;19.63;1.80;;;;;;;;;;5092826;28;20943;-67
2022/07/19 21:38:27;;;;;;;19.10;1.80;;;;;;;;;;5093033;28;20430;-67
2022/07/19 21:40:55;;;;;;;20.37;2.63;;;;;;;;;;5092747;28;20432;-67
2022/07/19 21:43:22;;;;;;;18.80;2.10;;;;;;;;;;5092826;28;20446;-68
2022/07/19 21:45:50;;;;;;;18.90;1.80;;;;;;;;;;5092633;28;20961;-67
2022/07/19 21:48:17;;;;;;;18.63;1.90;;;;;;;;;;5092586;28;20449;-67
2022/07/19 21:50:44;;;;;;;24.03;2.40;;;;;;;;;;5092534;28;20437;-67
2022/07/19 21:53:12;;;;;;;19.50;1.97;;;;;;;;;;5092447;28;20465;-68
2022/07/19 21:55:41;;;;;;;23.07;1.80;;;;;;;;;;5092858;28;20431;-68
2022/07/19 21:58:08;;;;;;;20.77;1.90;;;;;;;;;;5092517;28;20445;-67
2022/07/19 22:00:36;;;;;;;20.70;1.93;;;;;;;;;;5092341;28;20481;-68
2022/07/19 22:03:03;;;;;;;18.90;2.17;;;;;;;;;;5092359;28;20441;-68
2022/07/19 22:05:32;;;;;;;26.90;2.27;;;;;;;;;;5092837;28;20430;-67
2022/07/19 22:07:59;;;;;;;19.20;2.23;;;;;;;;;;5092331;28;20974;-67
2022/07/19 22:10:27;;;;;;;18.90;2.20;;;;;;;;;;5092219;28;20450;-68
2022/07/19 22:12:56;;;;;;;22.80;1.80;;;;;;;;;;5092120;28;20974;-67
2022/07/19 22:15:24;;;;;;;20.27;2.33;;;;;;;;;;5092395;28;20811;-67
2022/07/19 22:17:53;;;;;;;18.50;1.60;;;;;;;;;;5092279;28;20434;-67
2022/07/19 22:20:20;;;;;;;18.23;1.83;;;;;;;;;;5092116;28;20478;-67
2022/07/19 22:22:48;;;;;;;23.23;2.07;;;;;;;;;;5092392;28;20437;-67
2022/07/19 22:25:15;;;;;;;18.67;1.80;;;;;;;;;;5092618;28;20462;-67
2022/07/19 22:27:42;;;;;;;19.53;1.97;;;;;;;;;;5092234;28;20438;-67
2022/07/19 22:30:12;;;;;;;18.40;1.80;;;;;;;;;;5092228;28;20954;-67
2022/07/19 22:32:39;;;;;;;22.30;2.00;;;;;;;;;;5092186;28;20467;-67
2022/07/19 22:35:07;;;;;;;18.30;1.70;;;;;;;;;;5092468;28;20434;-67
2022/07/19 22:37:35;;;;;;;18.13;1.70;;;;;;;;;;5092080;28;20441;-67
2022/07/19 22:40:02;;;;;;;19.93;2.03;;;;;;;;;;5092081;28;21005;-67
2022/07/19 22:42:30;;;;;;;18.13;1.90;;;;;;;;;;5092089;28;20442;-67
2022/07/19 22:44:57;;;;;;;24.03;2.03;;;;;;;;;;5091692;28;20450;-67
2022/07/19 22:47:26;;;;;;;20.07;2.10;;;;;;;;;;5091984;28;20435;-67
2022/07/19 22:49:54;;;;;;;18.80;1.97;;;;;;;;;;5092175;28;20442;-67
2022/07/19 22:52:21;;;;;;;26.63;3.13;;;;;;;;;;5091741;28;20425;-67
2022/07/19 22:54:48;;;;;;;20.77;1.83;;;;;;;;;;5092125;28;20441;-67
2022/07/19 22:57:16;;;;;;;18.50;1.93;;;;;;;;;;5091765;28;20434;-67
2022/07/19 22:59:44;;;;;;;20.33;2.47;;;;;;;;;;5092003;28;20481;-67
2022/07/19 23:02:11;;;;;;;33.83;2.90;;;;;;;;;;5092049;28;20434;-67
2022/07/19 23:04:40;;;;;;;18.73;2.03;;;;;;;;;;5092033;28;20430;-67
2022/07/19 23:07:08;;;;;;;18.90;1.77;;;;;;;;;;5091933;28;20429;-67
2022/07/19 23:09:35;;;;;;;20.20;2.03;;;;;;;;;;5091872;28;20973;-67
2022/07/19 23:12:03;;;;;;;18.97;2.03;;;;;;;;;;5091999;28;20445;-67
2022/07/19 23:14:30;;;;;;;20.53;2.00;;;;;;;;;;5092017;28;20434;-67
2022/07/19 23:16:58;;;;;;;18.33;1.93;;;;;;;;;;5091614;28;20462;-67
2022/07/19 23:19:25;;;;;;;19.73;2.03;;;;;;;;;;5091803;28;20478;-67
2022/07/19 23:21:54;;;;;;;19.53;1.90;;;;;;;;;;5091916;28;20441;-66
2022/07/19 23:24:22;;;;;;;19.50;1.90;;;;;;;;;;5094200;28;20433;-67
2022/07/19 23:26:49;;;;;;;18.20;1.80;;;;;;;;;;5095294;28;20441;-67
2022/07/19 23:29:17;;;;;;;21.80;2.20;;;;;;;;;;5095318;28;20438;-67
2022/07/19 23:31:44;;;;;;;19.80;2.33;;;;;;;;;;5095246;28;20434;-67
2022/07/19 23:34:12;;;;;;;20.00;2.03;;;;;;;;;;5095116;28;20434;-67
2022/07/19 23:36:39;;;;;;;19.90;1.70;;;;;;;;;;5095059;28;20447;-67
2022/07/19 23:39:08;;;;;;;18.37;1.80;;;;;;;;;;5094959;28;20432;-67
2022/07/19 23:41:36;;;;;;;18.60;1.67;;;;;;;;;;5095206;28;20438;-67
2022/07/19 23:44:04;;;;;;;18.63;1.80;;;;;;;;;;5095106;28;20426;-67
2022/07/19 23:46:31;;;;;;;20.60;2.10;;;;;;;;;;5094975;28;20438;-67
2022/07/19 23:48:59;;;;;;;20.43;2.00;;;;;;;;;;5094929;28;20541;-67
2022/07/19 23:51:26;;;;;;;18.60;1.73;;;;;;;;;;5094829;28;20442;-67
2022/07/19 23:53:53;;;;;;;18.90;1.97;;;;;;;;;;5094303;28;20831;-66
2022/07/19 23:56:23;;;;;;;21.17;2.53;;;;;;;;;;5094936;28;20430;-66
2022/07/19 23:58:51;;;;;;;20.40;1.97;;;;;;;;;;5094637;28;20525;-67
